Aviation Digital Data Service (ADDS)

Output produced by METARs form (0424 UTC 08 July 2015)
found at http://aviationweather.gov/adds/metars/
 
KPHL 072334Z 0800/0906 22009KT P6SM FEW150 
     FM081400 25010KT P6SM SCT040 BKN060 
     FM081700 25010KT 5SM SHRA OVC035 
     FM090000 28009KT P6SM OVC035